Terminal Aerodrome Forecast
Issued by NWS

Home | Current Version | Previous Version | Text Only | Print | Product List | Glossary Off
Versions: 1 2 3 4 5 6 7 8 9 10 11 12 13 14 15

000
FTUS43 KGRB 192320
TAFCWA
TAF
KCWA 192320Z 2000/2024 35007KT P6SM SCT050
     FM200300 36003KT P6SM SCT250
     FM201500 26006KT P6SM BKN200=

USA.gov is the U.S. government's official web portal to all federal, state and local government web resources and services.